createdAt,value
2014-09-09T00:02:35.234Z,0
2014-09-09T00:08:35.732Z,0
2014-09-09T00:16:36.340Z,0
2014-09-09T00:26:37.032Z,0
2014-09-09T00:36:37.738Z,0
2014-09-09T00:44:38.346Z,0
2014-09-09T00:53:39.006Z,0
2014-09-09T01:02:39.663Z,0
2014-09-09T01:11:40.304Z,0
2014-09-09T01:18:40.866Z,0
2014-09-09T01:26:41.459Z,0
2014-09-09T01:34:42.069Z,0
2014-09-09T01:43:42.726Z,0
2014-09-09T01:52:43.383Z,0
2014-09-09T02:01:44.042Z,0
2014-09-09T02:09:44.650Z,0
2014-09-09T02:19:45.357Z,0
2014-09-09T02:27:45.952Z,0
2014-09-09T02:35:46.559Z,0
2014-09-09T02:44:47.220Z,0
2014-09-09T02:51:47.763Z,0
2014-09-09T03:01:48.469Z,0
2014-09-09T03:08:49.030Z,0
2014-09-09T03:16:49.654Z,0
2014-09-09T03:22:50.151Z,0
2014-09-09T03:30:50.776Z,0
2014-09-09T03:39:51.419Z,0
2014-09-09T03:49:52.125Z,0
2014-09-09T03:57:52.717Z,0
2014-09-09T04:05:53.313Z,0
2014-09-09T04:13:53.920Z,0
2014-09-09T04:21:54.515Z,0
2014-09-09T04:30:55.173Z,0
2014-09-09T04:39:55.900Z,6
2014-09-09T04:47:56.706Z,44
2014-09-09T15:45:45.005Z,484
2014-09-09T15:53:45.599Z,485
2014-09-09T16:02:46.256Z,347
2014-09-09T16:12:46.965Z,311
2014-09-09T16:20:47.573Z,198
2014-09-09T16:29:48.230Z,215
2014-09-09T16:38:48.874Z,290
2014-09-09T16:47:49.532Z,318
2014-09-09T16:53:50.028Z,260
2014-09-09T17:16:21.478Z,169
2014-09-09T17:24:22.086Z,97
2014-09-09T17:31:22.629Z,71
2014-09-09T17:40:23.321Z,56
2014-09-09T17:50:23.980Z,21
2014-09-09T17:59:24.622Z,10
